Time;durP1;ratioP1;P1;durP2;ratioP2;P2;SDS_P1;SDS_P2;PMS_P1;PMS_P2;Temp;Humidity;BMP_temperature;BMP_pressure;BME280_temperature;BME280_humidity;BME280_pressure;Samples;Min_cycle;Max_cycle;Signal;HPM_P1;HPM_P2
2022/06/12 00:00:42;;;;;;;9.25;2.92;;;17.90;63.10;;;;;;5092657;28;20029;-66
2022/06/12 00:03:10;;;;;;;8.30;3.20;;;18.00;62.60;;;;;;5092540;28;20418;-66
2022/06/12 00:05:38;;;;;;;8.70;3.58;;;17.70;62.80;;;;;;5092582;28;20042;-66
2022/06/12 00:08:05;;;;;;;8.23;2.85;;;17.50;63.30;;;;;;5092635;28;20021;-66
2022/06/12 00:10:33;;;;;;;7.32;3.40;;;17.40;63.30;;;;;;5092622;28;20017;-66
2022/06/12 00:12:59;;;;;;;7.63;3.20;;;17.40;63.60;;;;;;5092686;28;20016;-66
2022/06/12 00:15:27;;;;;;;6.95;3.08;;;17.40;63.60;;;;;;5092910;28;20017;-66
2022/06/12 00:17:53;;;;;;;6.50;2.70;;;17.50;63.60;;;;;;5096119;28;20021;-66
2022/06/12 00:20:19;;;;;;;7.90;2.95;;;17.30;63.70;;;;;;5096130;28;20027;-66
2022/06/12 00:22:46;;;;;;;6.75;2.55;;;17.40;63.70;;;;;;5096100;28;20054;-66
2022/06/12 00:25:14;;;;;;;8.23;2.85;;;17.40;63.60;;;;;;5096099;28;20021;-66
2022/06/12 00:27:40;;;;;;;7.85;3.05;;;17.40;63.70;;;;;;5096013;28;20108;-66
2022/06/12 00:30:08;;;;;;;7.97;2.72;;;17.30;63.60;;;;;;5095974;28;20040;-66
2022/06/12 00:32:35;;;;;;;7.32;2.60;;;17.30;63.60;;;;;;5095877;28;20024;-66
2022/06/12 00:35:02;;;;;;;7.03;2.70;;;17.40;63.20;;;;;;5095940;28;20055;-67
2022/06/12 00:37:28;;;;;;;7.07;2.83;;;17.30;63.10;;;;;;5095859;28;20029;-66
2022/06/12 00:39:56;;;;;;;5.72;2.47;;;17.30;63.20;;;;;;5095752;28;20151;-66
2022/06/12 00:42:29;;;;;;;6.47;2.13;;;17.20;63.50;;;;;;5095781;28;20028;-66
2022/06/12 00:44:57;;;;;;;6.80;2.45;;;17.10;63.90;;;;;;5095717;28;20028;-66
2022/06/12 00:47:23;;;;;;;4.95;2.38;;;17.00;63.80;;;;;;5095683;28;20079;-66
2022/06/12 00:49:54;;;;;;;5.60;2.40;;;17.00;63.90;;;;;;5095611;28;20028;-66
2022/06/12 00:52:33;;;;;;;5.80;2.67;;;16.80;64.00;;;;;;5095704;28;20103;-66
2022/06/12 00:55:06;;;;;;;9.60;3.63;;;16.80;64.10;;;;;;5095599;28;20025;-66
2022/06/12 00:57:32;;;;;;;6.82;2.70;;;16.80;64.20;;;;;;5095564;28;20020;-66
2022/06/12 01:00:05;;;;;;;6.60;2.95;;;16.80;64.00;;;;;;5095399;28;20028;-66
2022/06/12 01:02:32;;;;;;;;;;;16.80;64.00;;;;;;5095782;28;20025;-66
2022/06/12 01:07:50;;;;;;;7.07;2.60;;;16.50;65.00;;;;;;5095565;28;20449;-66
2022/06/12 01:10:18;;;;;;;6.47;2.80;;;16.50;65.20;;;;;;5095376;28;20040;-66
2022/06/12 01:12:49;;;;;;;7.35;2.95;;;16.50;65.10;;;;;;5095098;28;20036;-66
2022/06/12 01:15:32;;;;;;;7.90;2.83;;;16.60;64.80;;;;;;5095358;28;20048;-66
2022/06/12 01:17:58;;;;;;;;;;;16.50;65.00;;;;;;5095546;28;20017;-66
2022/06/12 01:20:28;;;;;;;6.80;2.92;;;16.50;65.10;;;;;;5095072;28;19904;-66
2022/06/12 01:23:27;;;;;;;7.68;3.83;;;16.50;65.10;;;;;;5095014;28;20024;-66
2022/06/12 01:26:41;;;;;;;5.53;3.00;;;16.50;65.00;;;;;;5095021;28;20139;-66
2022/06/12 01:29:25;;;;;;;8.40;3.15;;;16.50;64.90;;;;;;5065539;28;20032;-66
2022/06/12 01:31:54;;;;;;;10.10;3.63;;;16.50;64.80;;;;;;5094813;28;20044;-66
2022/06/12 01:35:17;;;;;;;5.57;3.15;;;16.40;64.60;;;;;;5094769;28;20027;-66
2022/06/12 01:37:51;;;;;;;6.70;3.30;;;16.40;64.50;;;;;;5033055;28;20053;-66
2022/06/12 01:40:42;;;;;;;5.05;2.92;;;16.50;64.40;;;;;;5016556;28;20323;-66
2022/06/12 01:43:14;;;;;;;5.93;2.88;;;16.50;64.30;;;;;;5083483;28;20044;-66
2022/06/12 01:45:47;;;;;;;5.10;2.80;;;16.30;64.80;;;;;;5094869;28;20024;-66
2022/06/12 01:48:25;;;;;;;;;;;16.10;65.00;;;;;;5094924;28;20055;-66
2022/06/12 01:51:05;;;;;;;8.77;3.17;;;16.20;65.40;;;;;;5094461;28;19964;-67
2022/06/12 01:53:51;;;;;;;10.30;3.90;;;16.20;65.50;;;;;;5094523;28;20028;-66
2022/06/12 01:56:40;;;;;;;6.72;3.20;;;16.20;65.40;;;;;;5094485;28;20033;-66
2022/06/12 01:59:43;;;;;;;6.57;3.35;;;16.20;64.80;;;;;;5083348;28;20044;-66
2022/06/12 02:02:44;;;;;;;6.13;2.92;;;16.20;64.80;;;;;;5094269;28;20052;-66
2022/06/12 02:05:31;;;;;;;6.63;3.20;;;16.10;65.00;;;;;;5039073;28;20049;-66
2022/06/12 02:08:00;;;;;;;6.32;3.60;;;16.10;65.00;;;;;;5073017;28;20112;-66
2022/06/12 02:10:54;;;;;;;11.38;3.83;;;16.00;65.20;;;;;;5074031;28;20060;-66
2022/06/12 02:13:27;;;;;;;9.43;3.58;;;16.00;65.80;;;;;;5073448;28;20033;-66
2022/06/12 02:16:00;;;;;;;11.82;3.53;;;16.00;65.90;;;;;;5073973;28;20021;-66
2022/06/12 02:18:38;;;;;;;6.63;3.70;;;15.90;66.00;;;;;;5073841;28;20048;-66
2022/06/12 02:21:12;;;;;;;8.60;3.95;;;15.80;66.20;;;;;;5073836;28;20013;-66
2022/06/12 02:23:40;;;;;;;9.50;4.07;;;15.60;66.30;;;;;;5073856;28;20037;-66
2022/06/12 02:26:13;;;;;;;10.38;4.10;;;15.50;66.40;;;;;;5073717;28;20092;-67
2022/06/12 02:28:56;;;;;;;8.15;4.22;;;15.60;66.90;;;;;;5073656;28;20024;-66
2022/06/12 02:31:26;;;;;;;8.35;3.85;;;15.70;67.20;;;;;;5073795;28;20025;-66
2022/06/12 02:33:57;;;;;;;10.68;4.63;;;15.80;67.30;;;;;;5073669;28;20024;-67
2022/06/12 02:36:29;;;;;;;7.65;3.55;;;15.90;67.30;;;;;;5073625;28;20036;-66
2022/06/12 02:39:31;;;;;;;8.80;3.90;;;16.00;66.90;;;;;;5073257;28;20050;-67
2022/06/12 02:42:12;;;;;;;9.27;3.97;;;16.00;66.00;;;;;;5071268;28;20037;-66
2022/06/12 02:44:57;;;;;;;10.15;3.78;;;15.90;65.90;;;;;;5073436;28;20017;-67
2022/06/12 02:47:26;;;;;;;8.38;3.85;;;15.80;66.40;;;;;;5072504;28;20055;-66
2022/06/12 02:49:55;;;;;;;8.98;4.50;;;15.70;66.80;;;;;;5073342;28;20021;-67
2022/06/12 02:52:32;;;;;;;8.52;3.97;;;15.80;66.80;;;;;;5073321;28;20043;-67
2022/06/12 02:55:11;;;;;;;9.20;3.97;;;15.90;66.60;;;;;;5073489;28;20027;-67
2022/06/12 02:58:03;;;;;;;8.48;3.80;;;15.90;66.20;;;;;;5073307;28;20025;-67
2022/06/12 03:00:53;;;;;;;11.40;4.07;;;15.80;67.00;;;;;;5073391;28;20032;-67
2022/06/12 03:03:22;;;;;;;8.50;4.07;;;15.50;67.70;;;;;;5078518;28;20040;-67
2022/06/12 03:05:52;;;;;;;5.80;3.35;;;15.30;68.20;;;;;;5093242;28;20025;-67
2022/06/12 03:08:23;;;;;;;10.05;3.72;;;15.30;68.10;;;;;;5093231;28;20032;-66
2022/06/12 03:10:54;;;;;;;7.20;3.60;;;15.20;68.90;;;;;;5093243;28;20036;-66
2022/06/12 03:13:21;;;;;;;6.38;3.03;;;15.30;68.90;;;;;;5093208;28;20055;-66
2022/06/12 03:16:00;;;;;;;11.43;3.97;;;15.30;69.10;;;;;;5093270;28;20028;-66
2022/06/12 03:18:33;;;;;;;9.55;3.30;;;15.40;69.20;;;;;;5093115;28;20044;-67
2022/06/12 03:21:08;;;;;;;9.95;3.58;;;15.40;69.30;;;;;;5093163;28;20040;-67
2022/06/12 03:23:51;;;;;;;10.23;3.78;;;15.40;69.10;;;;;;5093125;28;20024;-66
2022/06/12 03:26:49;;;;;;;9.18;2.95;;;15.40;69.10;;;;;;5093066;28;20048;-67
2022/06/12 03:29:23;;;;;;;8.45;3.33;;;15.40;69.30;;;;;;5071955;28;20063;-67
2022/06/12 03:32:19;;;;;;;10.27;3.42;;;15.40;69.30;;;;;;5092093;28;20029;-66
2022/06/12 03:34:52;;;;;;;11.57;3.60;;;15.40;69.50;;;;;;5092951;28;20078;-67
2022/06/12 03:37:22;;;;;;;9.13;3.83;;;15.30;69.50;;;;;;5092977;28;20029;-66
2022/06/12 03:40:07;;;;;;;7.88;3.25;;;15.30;69.80;;;;;;5092888;28;20021;-67
2022/06/12 03:42:36;;;;;;;6.50;3.22;;;15.30;70.00;;;;;;5092898;28;20047;-66
2022/06/12 03:45:09;;;;;;;8.15;3.00;;;15.30;70.10;;;;;;5092864;28;20017;-66
2022/06/12 03:47:46;;;;;;;13.93;3.30;;;15.30;70.30;;;;;;5092832;28;20084;-67
2022/06/12 03:50:33;;;;;;;11.43;3.60;;;15.30;70.10;;;;;;5091784;28;20047;-67
2022/06/12 03:53:15;;;;;;;8.07;3.88;;;15.30;70.30;;;;;;5096740;28;20032;-66
2022/06/12 03:58:51;;;;;;;10.73;3.33;;;15.30;70.50;;;;;;5096761;28;20035;-66
2022/06/12 04:01:16;;;;;;;9.73;3.28;;;15.30;70.60;;;;;;5096577;28;20028;-66
2022/06/12 04:03:45;;;;;;;7.22;3.08;;;15.30;70.70;;;;;;5096336;28;20045;-67
2022/06/12 04:06:17;;;;;;;12.45;3.60;;;15.30;70.80;;;;;;5096433;28;20021;-67
2022/06/12 04:08:53;;;;;;;7.38;3.20;;;15.30;71.00;;;;;;5096413;28;20033;-67
2022/06/12 04:11:22;;;;;;;8.27;3.58;;;15.30;71.00;;;;;;5096530;28;20020;-67
2022/06/12 04:13:49;;;;;;;7.03;3.33;;;15.40;71.00;;;;;;5096409;28;20021;-66
2022/06/12 04:16:29;;;;;;;11.63;3.33;;;15.30;71.50;;;;;;5096260;28;20020;-66
2022/06/12 04:18:55;;;;;;;7.45;3.17;;;15.30;71.20;;;;;;5096176;28;20025;-67
2022/06/12 04:21:31;;;;;;;11.27;3.50;;;15.30;71.30;;;;;;5096172;28;20036;-67
2022/06/12 04:24:05;;;;;;;9.20;3.53;;;15.40;71.60;;;;;;5096270;28;20079;-68
2022/06/12 04:26:37;;;;;;;12.68;3.75;;;15.40;71.70;;;;;;5096256;28;20025;-67
2022/06/12 04:29:19;;;;;;;8.65;3.47;;;15.40;71.80;;;;;;5095996;28;20047;-66
2022/06/12 04:31:47;;;;;;;;;;;15.40;71.90;;;;;;5096405;28;20103;-66
2022/06/12 04:34:26;;;;;;;9.27;3.38;;;15.40;71.80;;;;;;5095934;28;19915;-66
2022/06/12 04:36:58;;;;;;;10.80;3.35;;;15.40;71.80;;;;;;5095922;28;20028;-67
2022/06/12 04:39:27;;;;;;;11.80;3.50;;;15.40;71.90;;;;;;5095820;28;20050;-66
2022/06/12 04:41:54;;;;;;;7.95;3.60;;;15.40;71.80;;;;;;5095800;28;20021;-67
2022/06/12 04:44:20;;;;;;;11.48;3.72;;;15.50;72.00;;;;;;5095744;28;20021;-67
2022/06/12 04:46:48;;;;;;;9.48;3.95;;;15.50;72.10;;;;;;5095694;28;20017;-67
2022/06/12 04:49:19;;;;;;;8.70;3.65;;;15.50;72.30;;;;;;5095669;28;20031;-66
2022/06/12 04:51:46;;;;;;;8.55;3.97;;;15.50;72.00;;;;;;5095697;28;20021;-66
2022/06/12 04:54:12;;;;;;;11.45;4.05;;;15.50;72.00;;;;;;5095691;28;20027;-67
2022/06/12 04:56:38;;;;;;;9.98;3.88;;;15.50;72.10;;;;;;5095521;28;20101;-66
2022/06/12 04:59:05;;;;;;;9.23;3.70;;;15.50;72.60;;;;;;5095403;28;20036;-67
2022/06/12 05:01:32;;;;;;;10.93;4.20;;;15.50;72.50;;;;;;5095317;28;20056;-67
2022/06/12 05:03:58;;;;;;;12.13;4.25;;;15.50;72.90;;;;;;5095251;28;20063;-66
2022/06/12 05:06:25;;;;;;;11.52;4.07;;;15.50;72.80;;;;;;5077747;28;20028;-67
2022/06/12 05:08:50;;;;;;;15.57;4.47;;;15.50;73.00;;;;;;5095281;28;20025;-67
2022/06/12 05:11:17;;;;;;;11.98;4.00;;;15.50;73.40;;;;;;5095243;28;20059;-67
2022/06/12 05:13:43;;;;;;;16.00;4.45;;;15.50;73.00;;;;;;5095362;28;20024;-66
2022/06/12 05:16:30;;;;;;;10.93;4.10;;;15.60;72.90;;;;;;5095181;28;20021;-67
2022/06/12 05:18:56;;;;;;;9.98;4.30;;;15.70;72.70;;;;;;5095125;28;20029;-67
2022/06/12 05:21:22;;;;;;;14.77;4.57;;;15.70;72.60;;;;;;5095065;28;20051;-67
2022/06/12 05:23:48;;;;;;;8.07;4.05;;;15.80;73.20;;;;;;5095029;28;20044;-66
2022/06/12 05:26:16;;;;;;;10.73;4.50;;;15.80;73.30;;;;;;5095025;28;20074;-67
2022/06/12 05:28:42;;;;;;;11.32;4.20;;;15.80;73.10;;;;;;5093910;28;20078;-66
2022/06/12 05:31:08;;;;;;;11.18;4.45;;;15.80;72.60;;;;;;5094860;28;20032;-67
2022/06/12 05:33:34;;;;;;;11.80;4.28;;;15.80;72.70;;;;;;5094789;28;20036;-66
2022/06/12 05:35:59;;;;;;;13.55;4.60;;;15.80;72.80;;;;;;5094811;28;20052;-67
2022/06/12 05:38:25;;;;;;;11.40;4.68;;;15.90;73.00;;;;;;5094675;28;20044;-67
2022/06/12 05:40:51;;;;;;;11.80;4.53;;;15.90;73.10;;;;;;5094684;28;20025;-67
2022/06/12 05:43:16;;;;;;;12.55;5.45;;;15.90;73.10;;;;;;5094747;28;20086;-67
2022/06/12 05:45:42;;;;;;;17.35;5.55;;;16.00;73.40;;;;;;5093559;28;20032;-67
2022/06/12 05:48:15;;;;;;;11.23;5.35;;;16.10;73.30;;;;;;5094503;28;20036;-67
2022/06/12 05:50:57;;;;;;;13.32;5.20;;;16.20;73.10;;;;;;5094536;28;20051;-67
2022/06/12 05:53:25;;;;;;;13.05;5.45;;;16.30;73.40;;;;;;5093520;28;20020;-68
2022/06/12 05:55:51;;;;;;;13.38;5.13;;;16.30;73.00;;;;;;5094384;28;20017;-67
2022/06/12 05:58:19;;;;;;;13.45;5.15;;;16.30;73.50;;;;;;5094175;28;20402;-67
2022/06/12 06:00:45;;;;;;;13.95;5.28;;;16.30;73.60;;;;;;5094273;28;20043;-67
2022/06/12 06:03:12;;;;;;;13.05;5.47;;;16.40;73.20;;;;;;5094061;28;20051;-67
2022/06/12 06:05:39;;;;;;;12.38;5.70;;;16.40;73.40;;;;;;5094231;28;20112;-66
2022/06/12 06:08:06;;;;;;;14.13;6.10;;;16.50;73.60;;;;;;5093976;28;20507;-67
2022/06/12 06:10:32;;;;;;;14.77;5.50;;;16.50;73.60;;;;;;5094053;28;20480;-67
2022/06/12 06:12:58;;;;;;;15.32;6.18;;;16.50;73.80;;;;;;5093722;28;20025;-67
2022/06/12 06:15:24;;;;;;;15.70;6.15;;;16.50;74.40;;;;;;5093787;28;20020;-67
2022/06/12 06:17:52;;;;;;;18.13;6.30;;;16.70;74.10;;;;;;5093933;28;20021;-66
2022/06/12 06:20:22;;;;;;;12.18;6.10;;;16.70;74.00;;;;;;5093810;28;20021;-67
2022/06/12 06:22:49;;;;;;;13.60;6.07;;;16.80;74.10;;;;;;5093910;28;20447;-67
2022/06/12 06:25:15;;;;;;;15.93;6.63;;;16.80;74.60;;;;;;5093796;28;20092;-67
2022/06/12 06:27:41;;;;;;;20.17;7.40;;;16.80;74.40;;;;;;5093699;28;20012;-67
2022/06/12 06:30:07;;;;;;;16.05;6.25;;;16.90;74.30;;;;;;5093690;28;20033;-67
2022/06/12 06:32:32;;;;;;;11.77;5.90;;;17.00;74.30;;;;;;5093697;28;20448;-67
2022/06/12 06:34:59;;;;;;;16.85;6.03;;;17.10;74.20;;;;;;5093609;28;20027;-67
2022/06/12 06:37:25;;;;;;;16.30;6.15;;;17.10;74.30;;;;;;5093603;28;20028;-67
2022/06/12 06:39:50;;;;;;;12.30;6.05;;;17.20;74.20;;;;;;5093483;28;20035;-67
2022/06/12 06:42:16;;;;;;;16.13;5.78;;;17.20;74.30;;;;;;5093523;28;20072;-67
2022/06/12 06:47:26;;;;;;;18.48;5.75;;;17.30;74.70;;;;;;5093565;28;20040;-67
2022/06/12 06:49:51;;;;;;;13.43;6.00;;;17.40;74.50;;;;;;5093568;28;20032;-67
2022/06/12 06:52:18;;;;;;;16.20;6.18;;;17.40;75.40;;;;;;5093402;28;20066;-67
2022/06/12 06:54:43;;;;;;;21.77;6.22;;;17.40;74.80;;;;;;5093387;28;20033;-67
2022/06/12 06:57:09;;;;;;;22.75;6.55;;;17.50;75.10;;;;;;5093290;28;20054;-67
2022/06/12 06:59:36;;;;;;;19.50;5.97;;;17.60;75.30;;;;;;5093240;28;20020;-67
2022/06/12 07:02:02;;;;;;;17.48;5.78;;;17.60;75.00;;;;;;5093307;28;20063;-67
2022/06/12 07:04:28;;;;;;;21.88;5.70;;;17.60;75.20;;;;;;5093089;28;20040;-67
2022/06/12 07:06:54;;;;;;;20.15;5.88;;;17.60;75.20;;;;;;5093258;28;20062;-67
2022/06/12 07:09:19;;;;;;;19.73;6.07;;;17.70;74.40;;;;;;5093224;28;20031;-67
2022/06/12 07:11:45;;;;;;;17.98;5.78;;;17.80;75.10;;;;;;5093232;28;20466;-67
2022/06/12 07:14:11;;;;;;;24.95;6.38;;;17.90;75.20;;;;;;5093099;28;20044;-67
2022/06/12 07:16:40;;;;;;;16.90;6.07;;;18.00;74.20;;;;;;5093024;28;20032;-67
2022/06/12 07:19:06;;;;;;;17.35;6.38;;;18.00;73.60;;;;;;5093079;28;20021;-67
2022/06/12 07:21:32;;;;;;;12.45;5.10;;;18.10;74.20;;;;;;5092109;28;20020;-67
2022/06/12 07:23:58;;;;;;;20.15;6.40;;;18.10;73.50;;;;;;5093084;28;20020;-67
2022/06/12 07:26:32;;;;;;;15.82;5.07;;;18.10;72.90;;;;;;5095159;28;20031;-67
2022/06/12 07:28:58;;;;;;;17.17;4.47;;;18.20;72.50;;;;;;5097193;28;20047;-67
2022/06/12 07:31:24;;;;;;;18.92;4.50;;;18.30;71.80;;;;;;5097184;28;20479;-67
2022/06/12 07:33:50;;;;;;;15.80;4.50;;;18.40;71.40;;;;;;5097083;28;20033;-67
2022/06/12 07:36:17;;;;;;;16.13;4.57;;;18.50;70.90;;;;;;5097024;28;20028;-67
2022/06/12 07:38:45;;;;;;;17.33;4.50;;;18.50;70.40;;;;;;5095884;28;20036;-67
2022/06/12 07:41:13;;;;;;;17.58;5.22;;;18.60;71.10;;;;;;5097016;28;20027;-67
2022/06/12 07:43:40;;;;;;;17.20;5.50;;;18.60;70.00;;;;;;5095904;28;20028;-67
2022/06/12 07:46:09;;;;;;;12.35;5.00;;;18.60;69.50;;;;;;5095855;28;20024;-67
2022/06/12 07:48:35;;;;;;;13.85;5.13;;;18.70;69.30;;;;;;5096800;28;20099;-67
2022/06/12 07:51:04;;;;;;;11.75;4.40;;;18.80;69.20;;;;;;5096806;28;20033;-67
2022/06/12 07:53:31;;;;;;;15.63;4.32;;;18.90;68.70;;;;;;5096760;28;20017;-67
2022/06/12 07:55:57;;;;;;;12.13;4.53;;;19.10;68.30;;;;;;5096724;28;20024;-67
2022/06/12 07:58:24;;;;;;;14.65;4.55;;;19.10;67.50;;;;;;5096559;28;20055;-67
2022/06/12 08:00:55;;;;;;;16.52;4.28;;;19.20;67.80;;;;;;5096598;28;20044;-67
2022/06/12 08:03:21;;;;;;;15.32;4.15;;;19.20;66.80;;;;;;5096319;28;20055;-67
2022/06/12 08:05:47;;;;;;;11.82;4.07;;;19.20;66.70;;;;;;5096475;28;20021;-67
2022/06/12 08:08:13;;;;;;;20.10;4.50;;;19.30;66.80;;;;;;5095371;28;20029;-67
2022/06/12 08:10:38;;;;;;;15.27;4.38;;;19.40;67.30;;;;;;5096522;28;20029;-67
2022/06/12 08:13:07;;;;;;;16.02;5.03;;;19.40;66.50;;;;;;5095336;28;20032;-67
2022/06/12 08:15:34;;;;;;;12.07;4.75;;;19.40;65.90;;;;;;5096326;28;20432;-67
2022/06/12 08:18:00;;;;;;;15.05;4.65;;;19.30;66.30;;;;;;5096265;28;20028;-67
2022/06/12 08:20:31;;;;;;;14.40;4.63;;;19.40;67.20;;;;;;5096140;28;20024;-67
2022/06/12 08:23:02;;;;;;;16.13;4.97;;;19.30;66.50;;;;;;5095168;28;20051;-67
2022/06/12 08:25:30;;;;;;;12.38;4.60;;;19.40;66.50;;;;;;5095131;28;20032;-67
2022/06/12 08:27:56;;;;;;;17.88;4.53;;;19.40;67.50;;;;;;5095982;28;20017;-67
2022/06/12 08:30:22;;;;;;;13.27;5.75;;;19.30;65.90;;;;;;5096061;28;20058;-67
2022/06/12 08:32:49;;;;;;;12.50;4.65;;;19.40;66.50;;;;;;5095994;28;20031;-67
2022/06/12 08:35:20;;;;;;;15.65;4.03;;;19.40;67.10;;;;;;5095933;28;20029;-67
2022/06/12 08:37:46;;;;;;;12.02;4.20;;;19.40;66.10;;;;;;5095467;28;20021;-67
2022/06/12 08:40:23;;;;;;;17.08;4.88;;;19.40;65.70;;;;;;5095798;28;20031;-67
2022/06/12 08:42:56;;;;;;;15.18;4.80;;;19.50;65.70;;;;;;5095880;28;20017;-67
2022/06/12 08:45:26;;;;;;;12.65;4.93;;;19.60;65.30;;;;;;5095734;28;20020;-67
2022/06/12 08:47:54;;;;;;;13.63;4.50;;;19.60;66.10;;;;;;5095800;28;20013;-67
2022/06/12 08:51:07;;;;;;;11.32;4.00;;;19.70;66.30;;;;;;5095579;28;20048;-67
2022/06/12 08:53:45;;;;;;;15.82;4.50;;;19.80;64.30;;;;;;5033913;28;20053;-68
2022/06/12 08:56:15;;;;;;;13.43;3.80;;;19.80;64.70;;;;;;5092745;28;20043;-67
2022/06/12 08:58:51;;;;;;;15.18;4.03;;;19.90;64.90;;;;;;5095470;28;20048;-67
2022/06/12 09:01:18;;;;;;;13.98;4.35;;;20.00;65.40;;;;;;5095487;28;20092;-67
2022/06/12 09:03:53;;;;;;;13.25;4.15;;;20.00;65.40;;;;;;5095274;28;20139;-67
2022/06/12 09:06:46;;;;;;;11.15;4.00;;;20.00;65.40;;;;;;5095480;28;20013;-67
2022/06/12 09:09:27;;;;;;;16.70;4.22;;;20.10;64.10;;;;;;5095346;28;20029;-67
2022/06/12 09:12:14;;;;;;;11.15;3.97;;;20.10;64.40;;;;;;5095403;28;20020;-67
2022/06/12 09:15:10;;;;;;;11.88;4.22;;;20.20;64.40;;;;;;5095393;28;20084;-67
2022/06/12 09:17:57;;;;;;;15.82;4.75;;;20.20;63.60;;;;;;5095234;28;20052;-67
2022/06/12 09:20:44;;;;;;;13.90;4.63;;;20.30;63.50;;;;;;5095233;28;20032;-67
2022/06/12 09:23:21;;;;;;;12.00;5.05;;;20.40;63.70;;;;;;5095224;28;20076;-67
2022/06/12 09:26:09;;;;;;;13.43;4.50;;;20.50;64.50;;;;;;5095054;28;20016;-67
2022/06/12 09:28:53;;;;;;;11.77;3.90;;;20.50;64.00;;;;;;5094950;28;20076;-67
2022/06/12 09:31:45;;;;;;;18.30;4.90;;;20.60;63.40;;;;;;5093918;28;20024;-67
2022/06/12 09:34:42;;;;;;;12.40;4.60;;;20.70;62.70;;;;;;5095038;28;20035;-67
2022/06/12 09:40:40;;;;;;;10.13;3.67;;;20.60;63.80;;;;;;5094732;28;20051;-67
2022/06/12 09:43:15;;;;;;;10.18;3.75;;;20.60;61.00;;;;;;5094652;28;20016;-67
2022/06/12 09:46:16;;;;;;;10.75;3.33;;;20.70;61.00;;;;;;5094644;28;20078;-67
2022/06/12 09:48:55;;;;;;;9.65;2.95;;;20.90;60.90;;;;;;5093882;28;20048;-67
2022/06/12 09:51:59;;;;;;;8.38;2.97;;;21.00;62.30;;;;;;5094455;28;20028;-67
2022/06/12 09:54:37;;;;;;;9.20;3.10;;;21.00;59.70;;;;;;5094625;28;20107;-67
2022/06/12 09:57:22;;;;;;;8.50;2.90;;;21.10;60.60;;;;;;5094537;28;20028;-67
2022/06/12 09:59:53;;;;;;;9.75;3.38;;;21.00;58.50;;;;;;5094291;28;20054;-67
2022/06/12 10:02:28;;;;;;;6.53;2.83;;;21.00;58.40;;;;;;5094339;28;20036;-67
2022/06/12 10:05:09;;;;;;;8.38;3.25;;;21.10;60.10;;;;;;5094107;28;20060;-67
2022/06/12 10:07:52;;;;;;;11.82;3.50;;;21.00;58.40;;;;;;5094169;28;20084;-67
2022/06/12 10:10:42;;;;;;;9.57;3.13;;;21.00;58.10;;;;;;5094120;28;20029;-67
2022/06/12 10:13:12;;;;;;;7.40;2.65;;;21.10;56.90;;;;;;5093551;28;20036;-67
2022/06/12 10:15:43;;;;;;;8.00;2.95;;;21.00;56.10;;;;;;5094064;28;20028;-67
2022/06/12 10:18:27;;;;;;;9.52;2.92;;;21.10;58.10;;;;;;5093982;28;20017;-67
2022/06/12 10:21:00;;;;;;;11.93;3.60;;;21.30;57.30;;;;;;5093981;28;20024;-67
2022/06/12 10:23:25;;;;;;;;;;;21.50;57.70;;;;;;5094316;28;20072;-67
2022/06/12 10:25:56;;;;;;;8.55;2.75;;;21.60;57.30;;;;;;5093732;28;19912;-67
2022/06/12 10:28:29;;;;;;;6.88;2.75;;;21.60;56.30;;;;;;5093790;28;20035;-67
2022/06/12 10:31:10;;;;;;;6.63;2.83;;;21.60;55.90;;;;;;5093787;28;20021;-67
2022/06/12 10:33:42;;;;;;;8.52;2.53;;;21.50;55.00;;;;;;5093679;28;20020;-67
2022/06/12 10:36:30;;;;;;;8.77;3.13;;;21.50;54.50;;;;;;5093682;28;20028;-67
2022/06/12 10:39:03;;;;;;;7.28;2.90;;;21.60;55.40;;;;;;5093575;28;20032;-67
2022/06/12 10:41:30;;;;;;;8.35;2.35;;;21.70;54.40;;;;;;5093619;28;20052;-67
2022/06/12 10:43:57;;;;;;;5.93;2.42;;;21.90;53.40;;;;;;5093532;28;20152;-67
2022/06/12 10:46:30;;;;;;;7.47;2.58;;;21.90;52.00;;;;;;5093506;28;20024;-67
2022/06/12 10:49:03;;;;;;;6.00;2.50;;;22.00;52.90;;;;;;5093514;28;20070;-67
2022/06/12 10:51:40;;;;;;;8.45;2.35;;;21.90;52.30;;;;;;5093496;28;20058;-67
2022/06/12 10:54:15;;;;;;;7.05;2.47;;;22.00;50.20;;;;;;5093482;28;20033;-67
2022/06/12 10:57:16;;;;;;;8.25;2.45;;;22.00;52.10;;;;;;5093366;28;20028;-67
2022/06/12 11:00:04;;;;;;;7.88;2.55;;;22.10;51.00;;;;;;5093133;28;20084;-67
2022/06/12 11:02:50;;;;;;;12.15;3.10;;;22.10;50.50;;;;;;5093495;28;20021;-67
2022/06/12 11:05:41;;;;;;;7.32;2.80;;;22.10;52.30;;;;;;5082328;28;20044;-67
2022/06/12 11:08:25;;;;;;;7.40;2.92;;;22.20;52.80;;;;;;5093318;28;20081;-67
2022/06/12 11:11:22;;;;;;;11.25;3.47;;;22.10;51.00;;;;;;5093292;28;20115;-67
2022/06/12 11:14:41;;;;;;;7.43;3.20;;;21.90;51.60;;;;;;5064465;28;20088;-67
2022/06/12 11:17:10;;;;;;;6.95;3.60;;;22.00;52.70;;;;;;5031385;28;20098;-67
2022/06/12 11:19:48;;;;;;;11.13;4.47;;;22.00;52.90;;;;;;5031477;28;20038;-67
2022/06/12 11:22:29;;;;;;;8.88;3.47;;;22.00;52.70;;;;;;5073391;28;20036;-67
2022/06/12 11:25:33;;;;;;;12.25;3.50;;;22.00;53.30;;;;;;5091776;28;20037;-67
2022/06/12 11:28:20;;;;;;;6.35;3.15;;;22.20;52.30;;;;;;5074967;28;20056;-67
2022/06/12 11:31:07;;;;;;;12.30;3.45;;;22.10;51.70;;;;;;5093069;28;20021;-67
2022/06/12 11:33:53;;;;;;;8.35;2.70;;;22.10;56.10;;;;;;5093074;28;20123;-67
2022/06/12 11:36:40;;;;;;;10.30;2.67;;;22.10;54.90;;;;;;5091973;28;20062;-67
2022/06/12 11:39:11;;;;;;;6.60;2.40;;;22.20;54.20;;;;;;5092992;28;20029;-67
2022/06/12 11:42:14;;;;;;;7.20;2.43;;;22.20;51.40;;;;;;5092945;28;20146;-67
2022/06/12 11:44:56;;;;;;;5.88;2.03;;;22.30;52.20;;;;;;5092911;28;20316;-67
2022/06/12 11:47:59;;;;;;;6.55;2.22;;;22.50;51.40;;;;;;5092108;28;20021;-67
2022/06/12 11:50:42;;;;;;;8.13;2.17;;;22.60;50.20;;;;;;5092956;28;20052;-67
2022/06/12 11:53:30;;;;;;;9.95;2.15;;;22.60;49.90;;;;;;5092851;28;20025;-67
2022/06/12 11:56:09;;;;;;;7.43;2.47;;;22.60;50.50;;;;;;5092757;28;20025;-67
2022/06/12 11:59:12;;;;;;;12.25;2.90;;;22.70;51.20;;;;;;5092719;28;20430;-67
2022/06/12 12:02:10;;;;;;;9.85;2.53;;;22.90;51.20;;;;;;5092930;28;20025;-67
2022/06/12 12:05:23;;;;;;;8.20;2.40;;;22.90;49.40;;;;;;5092634;28;20052;-67
2022/06/12 12:08:13;;;;;;;7.43;2.28;;;22.90;49.50;;;;;;5087508;28;20093;-67
2022/06/12 12:11:00;;;;;;;7.40;2.50;;;22.90;50.50;;;;;;5092775;28;20029;-67
2022/06/12 12:13:41;;;;;;;7.32;2.70;;;22.70;50.50;;;;;;5096179;28;20015;-67
2022/06/12 12:16:19;;;;;;;6.45;2.50;;;22.80;51.80;;;;;;5096393;28;20149;-67
2022/06/12 12:18:56;;;;;;;7.18;2.63;;;22.80;51.10;;;;;;5096373;28;20029;-67
2022/06/12 12:22:00;;;;;;;13.18;3.10;;;22.90;52.20;;;;;;5096399;28;20017;-67
2022/06/12 12:24:31;;;;;;;8.00;2.35;;;23.00;52.10;;;;;;5093076;28;20033;-67
2022/06/12 12:27:01;;;;;;;8.82;2.50;;;23.00;52.30;;;;;;5096182;28;20017;-67
2022/06/12 12:29:31;;;;;;;5.70;2.38;;;23.00;49.70;;;;;;5096023;28;20125;-67
2022/06/12 12:31:58;;;;;;;8.60;2.65;;;23.00;50.50;;;;;;5096213;28;20017;-67
2022/06/12 12:34:26;;;;;;;8.48;2.10;;;22.90;49.50;;;;;;5096048;28;20029;-67
2022/06/12 12:42:38;;;;;;;6.43;2.42;;;23.10;50.70;;;;;;5096140;28;20035;-67
2022/06/12 12:45:19;;;;;;;8.05;2.40;;;23.00;49.40;;;;;;5095890;28;20076;-67
2022/06/12 12:47:44;;;;;;;7.20;2.42;;;22.90;47.10;;;;;;5095890;28;20032;-67
2022/06/12 12:50:14;;;;;;;8.45;2.40;;;22.60;49.10;;;;;;5095734;28;20059;-67
2022/06/12 12:52:50;;;;;;;8.23;2.40;;;22.50;49.40;;;;;;5095693;28;20031;-67
2022/06/12 12:55:40;;;;;;;7.10;2.15;;;22.60;50.50;;;;;;5095714;28;20020;-67
2022/06/12 12:58:23;;;;;;;6.32;2.20;;;22.70;50.50;;;;;;5095684;28;20021;-67
2022/06/12 13:00:49;;;;;;;7.05;2.35;;;22.90;50.70;;;;;;5095629;28;20080;-67
2022/06/12 13:03:36;;;;;;;7.55;2.40;;;23.10;51.00;;;;;;5095322;28;20123;-67
2022/06/12 13:06:32;;;;;;;8.45;2.63;;;23.40;50.40;;;;;;5095470;28;20081;-67
2022/06/12 13:09:22;;;;;;;6.97;2.50;;;23.60;50.00;;;;;;5095369;28;20024;-67
2022/06/12 13:12:26;;;;;;;5.70;2.13;;;23.70;48.70;;;;;;5094409;28;20029;-67
2022/06/12 13:15:28;;;;;;;10.02;2.15;;;23.90;48.20;;;;;;5071628;28;20041;-67
2022/06/12 13:18:31;;;;;;;7.13;1.98;;;23.90;45.60;;;;;;5094221;28;20071;-67
2022/06/12 13:20:57;;;;;;;3.78;1.98;;;23.90;48.30;;;;;;5063946;28;20045;-67
2022/06/12 13:23:36;;;;;;;5.22;1.88;;;23.90;47.80;;;;;;5095120;28;20553;-67
2022/06/12 13:26:07;;;;;;;6.32;2.10;;;24.10;48.30;;;;;;5095121;28;20017;-67
2022/06/12 13:28:35;;;;;;;7.60;2.15;;;24.10;47.70;;;;;;5094984;28;20021;-67
2022/06/12 13:31:03;;;;;;;8.60;2.35;;;24.20;47.40;;;;;;5094975;28;20084;-67
2022/06/12 13:33:34;;;;;;;9.05;2.45;;;24.20;47.10;;;;;;5094878;28;20076;-67
2022/06/12 13:36:15;;;;;;;7.63;2.65;;;24.30;46.50;;;;;;5094889;28;20044;-67
2022/06/12 13:38:49;;;;;;;6.80;1.98;;;24.20;45.00;;;;;;5094783;28;20050;-67
2022/06/12 13:41:24;;;;;;;6.53;2.05;;;24.10;46.30;;;;;;5094768;28;20035;-67